createdAt,value
2016-09-27T00:00:57.759Z,99.99
2016-09-27T00:01:58.045Z,99.99
2016-09-27T00:02:57.693Z,99.99
2016-09-27T00:03:57.702Z,99.99
2016-09-27T00:04:57.781Z,99.99
2016-09-27T00:05:57.798Z,99.99
2016-09-27T00:06:57.779Z,99.99
2016-09-27T00:07:57.779Z,99.99
2016-09-27T00:08:57.789Z,99.99
2016-09-27T00:09:57.719Z,99.99
2016-09-27T00:10:57.800Z,99.99
2016-09-27T00:11:57.796Z,99.99
2016-09-27T00:12:57.789Z,99.99
2016-09-27T00:13:57.802Z,99.99
2016-09-27T00:14:57.760Z,99.99
2016-09-27T00:15:57.811Z,99.99
2016-09-27T00:16:57.814Z,99.99
2016-09-27T00:17:57.939Z,99.99
2016-09-27T00:18:57.824Z,99.99
2016-09-27T00:19:57.827Z,99.99
2016-09-27T00:20:57.828Z,99.99
2016-09-27T00:21:57.749Z,99.99
2016-09-27T00:22:57.826Z,99.99
2016-09-27T00:23:57.748Z,99.99
2016-09-27T00:24:57.835Z,99.99
2016-09-27T00:25:57.757Z,99.99
2016-09-27T00:26:57.837Z,99.99
2016-09-27T00:27:57.809Z,99.99
2016-09-27T00:28:57.838Z,99.99
2016-09-27T00:29:57.770Z,99.99
2016-09-27T00:30:57.854Z,99.99
2016-09-27T00:31:57.765Z,99.99
2016-09-27T00:32:57.855Z,99.99
2016-09-27T00:33:57.941Z,99.99
2016-09-27T00:34:57.819Z,99.99
2016-09-27T00:35:57.853Z,99.99
2016-09-27T00:36:57.865Z,99.99
2016-09-27T00:37:57.833Z,99.99
2016-09-27T00:38:57.875Z,99.99
2016-09-27T00:39:57.794Z,99.99
2016-09-27T00:40:57.868Z,99.99
2016-09-27T00:41:57.886Z,99.99
2016-09-27T00:42:57.810Z,99.99
2016-09-27T00:43:57.843Z,99.99
2016-09-27T00:44:57.884Z,99.99
2016-09-27T00:45:57.896Z,99.99
2016-09-27T00:46:57.818Z,99.99
2016-09-27T00:47:57.815Z,99.99
2016-09-27T00:48:57.892Z,99.99
2016-09-27T00:49:58.022Z,99.99
2016-09-27T00:50:57.823Z,99.99
2016-09-27T00:51:57.827Z,99.99
2016-09-27T00:52:57.910Z,99.99
2016-09-27T00:53:57.871Z,99.99
2016-09-27T00:54:57.914Z,99.99
2016-09-27T00:55:57.876Z,99.99
2016-09-27T00:56:57.916Z,99.99
2016-09-27T00:57:57.924Z,99.99
2016-09-27T00:58:57.850Z,99.99
2016-09-27T00:59:57.920Z,99.99
2016-09-27T01:00:57.925Z,99.99
2016-09-27T01:01:57.898Z,99.99
2016-09-27T01:02:57.926Z,99.99
2016-09-27T01:03:57.889Z,99.99
2016-09-27T01:04:57.938Z,99.99
2016-09-27T01:05:58.058Z,99.99
2016-09-27T01:06:57.944Z,99.99
2016-09-27T01:07:57.871Z,99.99
2016-09-27T01:08:57.959Z,99.99
2016-09-27T01:09:58.177Z,99.99
2016-09-27T01:10:57.935Z,99.99
2016-09-27T01:11:57.954Z,99.99
2016-09-27T01:12:57.967Z,99.99
2016-09-27T01:13:57.968Z,99.99
2016-09-27T01:14:57.975Z,99.99
2016-09-27T01:15:57.902Z,99.99
2016-09-27T01:16:57.976Z,99.99
2016-09-27T01:17:57.902Z,99.99
2016-09-27T01:18:57.901Z,99.99
2016-09-27T01:19:57.900Z,99.99
2016-09-27T01:20:57.951Z,99.99
2016-09-27T01:21:58.117Z,99.99
2016-09-27T01:22:57.951Z,99.99
2016-09-27T01:23:57.986Z,99.99
2016-09-27T01:24:57.916Z,99.99
2016-09-27T01:25:57.998Z,99.99
2016-09-27T01:26:58.005Z,99.99
2016-09-27T01:27:58.004Z,99.99
2016-09-27T01:28:58.010Z,99.99
2016-09-27T01:29:58.109Z,99.99
2016-09-27T01:30:58.014Z,99.99
2016-09-27T01:31:57.984Z,99.99
2016-09-27T01:32:57.979Z,99.99
2016-09-27T01:33:58.028Z,99.99
2016-09-27T01:34:58.028Z,99.99
2016-09-27T01:35:57.948Z,99.99
2016-09-27T01:36:57.984Z,99.99
2016-09-27T01:37:58.080Z,99.99
2016-09-27T01:38:58.032Z,99.99
2016-09-27T01:39:58.048Z,99.99
2016-09-27T01:40:58.041Z,99.99
2016-09-27T01:41:58.039Z,99.99
2016-09-27T01:42:57.967Z,99.99
2016-09-27T01:43:58.002Z,99.99
2016-09-27T01:44:58.050Z,99.99
2016-09-27T01:45:57.982Z,99.99
2016-09-27T01:46:57.986Z,99.99
2016-09-27T01:47:58.051Z,99.99
2016-09-27T01:48:58.030Z,99.99
2016-09-27T01:49:58.063Z,99.99
2016-09-27T01:50:58.032Z,99.99
2016-09-27T01:51:57.993Z,99.99
2016-09-27T01:52:58.023Z,99.99
2016-09-27T01:53:58.155Z,99.99
2016-09-27T01:54:58.044Z,99.99
2016-09-27T01:55:58.078Z,99.99
2016-09-27T01:56:58.081Z,99.99
2016-09-27T01:57:58.044Z,99.99
2016-09-27T01:58:58.086Z,99.99
2016-09-27T01:59:58.097Z,99.99
2016-09-27T02:00:58.067Z,99.99
2016-09-27T02:01:58.050Z,99.99
2016-09-27T02:02:58.102Z,99.99
2016-09-27T02:03:58.100Z,99.99
2016-09-27T02:04:58.103Z,99.99
2016-09-27T02:05:58.029Z,99.99
2016-09-27T02:06:58.115Z,99.99
2016-09-27T02:07:58.039Z,99.99
2016-09-27T02:08:58.036Z,99.99
2016-09-27T02:09:58.247Z,99.99
2016-09-27T02:10:58.083Z,99.99
2016-09-27T02:11:58.042Z,99.99
2016-09-27T02:12:58.086Z,99.99
2016-09-27T02:13:58.122Z,99.99
2016-09-27T02:14:58.127Z,99.99
2016-09-27T02:15:58.062Z,99.99
2016-09-27T02:16:58.141Z,99.99
2016-09-27T02:17:58.137Z,99.99
2016-09-27T02:18:58.147Z,99.99
2016-09-27T02:19:58.071Z,99.99
2016-09-27T02:20:58.075Z,99.99
2016-09-27T02:21:58.153Z,99.99
2016-09-27T02:22:58.108Z,99.99
2016-09-27T02:23:58.077Z,99.99
2016-09-27T02:24:58.150Z,99.99
2016-09-27T02:25:58.494Z,99.99
2016-09-27T02:26:58.162Z,99.99
2016-09-27T02:27:58.133Z,99.99
2016-09-27T02:28:58.160Z,99.99
2016-09-27T02:29:58.175Z,99.99
2016-09-27T02:30:58.132Z,99.99
2016-09-27T02:31:58.176Z,99.99
2016-09-27T02:32:58.185Z,99.99
2016-09-27T02:33:58.176Z,99.99
2016-09-27T02:34:58.183Z,99.99
2016-09-27T02:35:58.180Z,99.99
2016-09-27T02:36:58.119Z,99.99
2016-09-27T02:37:58.158Z,99.99
2016-09-27T02:38:58.192Z,99.99
2016-09-27T02:39:58.180Z,99.99
2016-09-27T02:40:58.208Z,99.99
2016-09-27T02:41:58.601Z,99.99
2016-09-27T02:42:58.178Z,99.99
2016-09-27T02:43:58.210Z,99.99
2016-09-27T02:44:58.168Z,99.99
2016-09-27T02:45:58.210Z,99.99
2016-09-27T02:46:58.186Z,99.99
2016-09-27T02:47:58.176Z,99.99
2016-09-27T02:48:58.184Z,99.99
2016-09-27T02:49:58.196Z,99.99
2016-09-27T02:50:58.202Z,99.99
2016-09-27T02:51:58.262Z,99.99
2016-09-27T02:52:58.241Z,99.99
2016-09-27T02:53:58.241Z,99.99
2016-09-27T02:54:58.188Z,99.99
2016-09-27T02:55:58.248Z,99.99
2016-09-27T02:56:58.208Z,99.99
2016-09-27T02:57:58.776Z,99.99
2016-09-27T02:58:58.249Z,99.99
2016-09-27T02:59:58.183Z,99.99
2016-09-27T03:00:58.269Z,99.99
2016-09-27T03:01:58.253Z,99.99
2016-09-27T03:02:58.191Z,99.99
2016-09-27T03:03:58.266Z,99.99
2016-09-27T03:04:58.265Z,99.99
2016-09-27T03:05:58.191Z,99.99
2016-09-27T03:06:58.266Z,99.99
2016-09-27T03:07:58.274Z,99.99
2016-09-27T03:08:58.282Z,99.99
2016-09-27T03:09:58.455Z,99.99
2016-09-27T03:10:58.279Z,99.99
2016-09-27T03:11:58.256Z,99.99
2016-09-27T03:12:58.290Z,99.99
2016-09-27T03:13:58.343Z,99.99
2016-09-27T03:14:58.220Z,99.99
2016-09-27T03:15:58.298Z,99.99
2016-09-27T03:16:58.302Z,99.99
2016-09-27T03:17:58.240Z,99.99
2016-09-27T03:18:58.308Z,99.99
2016-09-27T03:19:58.300Z,99.99
2016-09-27T03:20:58.241Z,99.99
2016-09-27T03:21:58.248Z,99.99
2016-09-27T03:22:58.275Z,99.99
2016-09-27T03:23:58.325Z,99.99
2016-09-27T03:24:58.254Z,99.99
2016-09-27T03:25:58.332Z,99.99
2016-09-27T03:26:58.326Z,99.99
2016-09-27T03:27:58.272Z,99.99
2016-09-27T03:28:58.332Z,99.99
2016-09-27T03:29:58.422Z,99.99
2016-09-27T03:30:58.334Z,99.99
2016-09-27T03:31:58.360Z,99.99
2016-09-27T03:32:58.356Z,99.99
2016-09-27T03:33:58.353Z,99.99
2016-09-27T03:34:58.281Z,99.99
2016-09-27T03:35:58.323Z,99.99
2016-09-27T03:36:58.367Z,99.99
2016-09-27T03:37:58.362Z,99.99
2016-09-27T03:38:58.326Z,99.99
2016-09-27T03:39:58.376Z,99.99
2016-09-27T03:40:58.306Z,99.99
2016-09-27T03:41:58.299Z,99.99
2016-09-27T03:42:58.305Z,99.99
2016-09-27T03:43:58.344Z,99.99
2016-09-27T03:44:58.303Z,99.99
2016-09-27T03:45:58.461Z,99.99
2016-09-27T03:46:58.399Z,99.99
2016-09-27T03:47:58.389Z,99.99
2016-09-27T03:48:58.364Z,99.99
2016-09-27T03:49:58.412Z,99.99
2016-09-27T03:50:58.403Z,99.99
2016-09-27T03:51:58.337Z,99.99
2016-09-27T03:52:58.405Z,99.99
2016-09-27T03:53:58.334Z,99.99
2016-09-27T03:54:58.335Z,99.99
2016-09-27T03:55:58.344Z,99.99
2016-09-27T03:56:58.416Z,99.99
2016-09-27T03:57:58.424Z,99.99
2016-09-27T03:58:58.390Z,99.99
2016-09-27T03:59:58.403Z,99.99
2016-09-27T04:00:58.435Z,99.99
2016-09-27T04:01:58.522Z,99.99
2016-09-27T04:02:58.416Z,99.99
2016-09-27T04:03:58.438Z,99.99
2016-09-27T04:04:58.449Z,99.99
2016-09-27T04:05:58.445Z,99.99
2016-09-27T04:06:58.447Z,99.99
2016-09-27T04:07:58.448Z,99.99
2016-09-27T04:08:58.454Z,99.99
2016-09-27T04:09:58.428Z,99.99
2016-09-27T04:10:58.421Z,99.99
2016-09-27T04:11:58.384Z,99.99
2016-09-27T04:12:58.469Z,99.99
2016-09-27T04:13:58.426Z,99.99
2016-09-27T04:14:58.406Z,99.99
2016-09-27T04:15:58.472Z,99.99
2016-09-27T04:16:58.395Z,99.99
2016-09-27T04:17:58.772Z,99.99
2016-09-27T04:18:58.485Z,99.99
2016-09-27T04:19:58.499Z,99.99
2016-09-27T04:20:58.450Z,99.99
2016-09-27T04:21:58.482Z,99.99
2016-09-27T04:22:58.461Z,99.99
2016-09-27T04:23:58.460Z,99.99
2016-09-27T04:24:58.497Z,99.99
2016-09-27T04:25:58.429Z,99.99
2016-09-27T04:26:58.519Z,99.99
2016-09-27T04:27:58.432Z,99.99
2016-09-27T04:28:58.475Z,99.99
2016-09-27T04:29:58.514Z,99.99
2016-09-27T04:30:58.435Z,99.99
2016-09-27T04:31:58.487Z,99.99
2016-09-27T04:32:58.501Z,99.99
2016-09-27T04:33:58.643Z,99.99
2016-09-27T04:34:58.516Z,99.99
2016-09-27T04:35:58.534Z,99.99
2016-09-27T04:36:58.492Z,99.99
2016-09-27T04:37:58.498Z,99.99
2016-09-27T04:38:58.508Z,99.99
2016-09-27T04:39:58.507Z,99.99
2016-09-27T04:40:58.468Z,99.99
2016-09-27T04:41:58.475Z,99.99
2016-09-27T04:42:58.551Z,99.99
2016-09-27T04:43:58.515Z,99.99
2016-09-27T04:44:58.558Z,99.99
2016-09-27T04:45:58.518Z,99.99
2016-09-27T04:46:58.516Z,99.99
2016-09-27T04:47:58.544Z,99.99
2016-09-27T04:48:58.562Z,99.99
2016-09-27T04:49:58.677Z,99.99
2016-09-27T04:50:58.563Z,99.99
2016-09-27T04:51:58.523Z,99.99
2016-09-27T04:52:58.500Z,99.99
2016-09-27T04:53:58.579Z,99.99
2016-09-27T04:54:58.581Z,99.99
2016-09-27T04:55:58.513Z,99.99
2016-09-27T04:56:58.545Z,99.99
2016-09-27T04:57:58.546Z,99.99
2016-09-27T04:58:58.556Z,99.99
2016-09-27T04:59:58.520Z,99.99
2016-09-27T05:00:58.518Z,99.99
2016-09-27T05:01:58.524Z,99.99
2016-09-27T05:02:58.524Z,99.99
2016-09-27T05:03:58.601Z,99.99
2016-09-27T05:04:58.605Z,99.99
2016-09-27T05:05:58.841Z,99.99
2016-09-27T05:06:58.578Z,99.99
2016-09-27T05:07:58.535Z,99.99
2016-09-27T05:08:58.630Z,99.99
2016-09-27T05:09:58.547Z,99.99
2016-09-27T05:10:58.635Z,99.99
2016-09-27T05:11:58.583Z,99.99
2016-09-27T05:12:58.555Z,99.99
2016-09-27T05:13:58.634Z,99.99
2016-09-27T05:14:58.640Z,99.99
2016-09-27T05:15:58.606Z,99.99
2016-09-27T05:16:58.566Z,99.99
2016-09-27T05:17:58.643Z,99.99
2016-09-27T05:18:58.572Z,99.99
2016-09-27T05:19:58.640Z,99.99
2016-09-27T05:20:58.620Z,99.99
2016-09-27T05:21:58.735Z,99.99
2016-09-27T05:22:58.666Z,99.99
2016-09-27T05:23:58.628Z,99.99
2016-09-27T05:24:58.658Z,99.99
2016-09-27T05:25:58.638Z,99.99
2016-09-27T05:26:58.587Z,99.99
2016-09-27T05:27:58.691Z,99.99
2016-09-27T05:28:58.678Z,99.99
2016-09-27T05:29:58.680Z,99.99
2016-09-27T05:30:58.641Z,99.99
2016-09-27T05:31:58.612Z,99.99
2016-09-27T05:32:58.619Z,99.99
2016-09-27T05:33:58.618Z,99.99
2016-09-27T05:34:58.646Z,99.99
2016-09-27T05:35:58.661Z,99.99
2016-09-27T05:36:58.656Z,99.99
2016-09-27T05:37:58.827Z,99.99
2016-09-27T05:38:58.672Z,99.99
2016-09-27T05:39:58.659Z,99.99
2016-09-27T05:40:58.634Z,99.99
2016-09-27T05:41:58.706Z,99.99
2016-09-27T05:42:58.708Z,99.99
2016-09-27T05:43:58.680Z,99.99
2016-09-27T05:44:58.726Z,99.99
2016-09-27T05:45:58.677Z,99.99
2016-09-27T05:46:58.648Z,99.99
2016-09-27T05:47:58.653Z,99.99
2016-09-27T05:48:58.741Z,99.99
2016-09-27T05:49:58.693Z,99.99
2016-09-27T05:50:58.738Z,99.99
2016-09-27T05:51:58.740Z,99.99
2016-09-27T05:52:58.712Z,99.99
2016-09-27T05:53:58.869Z,99.99
2016-09-27T05:54:58.752Z,99.99
2016-09-27T05:55:58.749Z,99.99
2016-09-27T05:56:58.758Z,99.99
2016-09-27T05:57:58.746Z,99.99
2016-09-27T05:58:58.806Z,99.99
2016-09-27T05:59:58.690Z,99.99
2016-09-27T06:00:58.718Z,99.99
2016-09-27T06:01:58.769Z,99.99
2016-09-27T06:02:58.728Z,99.99
2016-09-27T06:03:58.725Z,99.99
2016-09-27T06:04:58.729Z,99.99
2016-09-27T06:05:58.709Z,99.99
2016-09-27T06:06:58.709Z,99.99
2016-09-27T06:07:58.776Z,99.99
2016-09-27T06:08:58.711Z,99.99
2016-09-27T06:09:58.899Z,99.99
2016-09-27T06:10:58.802Z,99.99
2016-09-27T06:11:58.772Z,99.99
2016-09-27T06:12:58.795Z,99.99
2016-09-27T06:13:58.802Z,99.99
2016-09-27T06:14:58.804Z,99.99
2016-09-27T06:15:58.804Z,99.99
2016-09-27T06:16:58.807Z,99.99
2016-09-27T06:17:58.809Z,99.99
2016-09-27T06:18:58.770Z,99.99
2016-09-27T06:19:58.765Z,99.99
2016-09-27T06:20:58.823Z,99.99
2016-09-27T06:21:58.783Z,99.99
2016-09-27T06:22:58.821Z,99.99
2016-09-27T06:23:58.752Z,99.99
2016-09-27T06:24:58.793Z,99.99
2016-09-27T06:25:59.212Z,99.99
2016-09-27T06:26:58.831Z,99.99
2016-09-27T06:27:58.841Z,99.99
2016-09-27T06:28:58.760Z,99.99
2016-09-27T06:29:58.804Z,99.99
2016-09-27T06:30:58.763Z,99.99
2016-09-27T06:31:58.860Z,99.99
2016-09-27T06:32:58.772Z,99.99
2016-09-27T06:33:58.809Z,99.99
2016-09-27T06:34:58.775Z,99.99
2016-09-27T06:35:58.884Z,99.99
2016-09-27T06:36:58.857Z,99.99
2016-09-27T06:37:58.834Z,99.99
2016-09-27T06:38:58.888Z,99.99
2016-09-27T06:39:58.789Z,99.99
2016-09-27T06:40:58.868Z,99.99
2016-09-27T06:41:59.252Z,99.99
2016-09-27T06:42:58.880Z,99.99
2016-09-27T06:43:58.880Z,99.99
2016-09-27T06:44:58.836Z,99.99
2016-09-27T06:45:58.905Z,99.99
2016-09-27T06:46:58.891Z,99.99
2016-09-27T06:47:58.819Z,99.99
2016-09-27T06:48:58.893Z,99.99
2016-09-27T06:49:58.861Z,99.99
2016-09-27T06:50:58.902Z,99.99
2016-09-27T06:51:58.826Z,99.99
2016-09-27T06:52:58.939Z,99.99
2016-09-27T06:53:58.925Z,99.99
2016-09-27T06:54:58.925Z,99.99
2016-09-27T06:55:58.971Z,99.99
2016-09-27T06:56:58.906Z,99.99
2016-09-27T06:57:59.038Z,99.99
2016-09-27T06:58:58.948Z,99.99
2016-09-27T06:59:58.848Z,99.99
2016-09-27T07:00:58.858Z,99.99
2016-09-27T07:01:58.943Z,99.99
2016-09-27T07:02:58.856Z,99.99
2016-09-27T07:03:58.948Z,99.99
2016-09-27T07:04:58.933Z,99.99
2016-09-27T07:05:58.908Z,99.99
2016-09-27T07:06:58.956Z,99.99
2016-09-27T07:07:58.876Z,99.99
2016-09-27T07:08:58.939Z,99.99
2016-09-27T07:09:58.961Z,99.99
2016-09-27T07:10:58.959Z,99.99
2016-09-27T07:11:58.977Z,99.99
2016-09-27T07:12:58.890Z,99.99
2016-09-27T07:13:59.032Z,99.99
2016-09-27T07:14:58.939Z,99.99
2016-09-27T07:15:58.945Z,99.99
2016-09-27T07:16:58.982Z,99.99
2016-09-27T07:17:58.973Z,99.99
2016-09-27T07:18:58.974Z,99.99
2016-09-27T07:19:58.962Z,99.99
2016-09-27T07:20:58.943Z,99.99
2016-09-27T07:21:59.576Z,99.99
2016-09-27T07:22:59.004Z,99.99
2016-09-27T07:23:58.996Z,99.99
2016-09-27T07:24:58.989Z,99.99
2016-09-27T07:25:59.052Z,99.99
2016-09-27T07:26:59.019Z,99.99
2016-09-27T07:27:59.010Z,99.99
2016-09-27T07:28:58.961Z,99.99
2016-09-27T07:29:59.128Z,99.99
2016-09-27T07:30:59.043Z,99.99
2016-09-27T07:31:59.020Z,99.99
2016-09-27T07:32:58.969Z,99.99
2016-09-27T07:33:59.010Z,99.99
2016-09-27T07:34:58.961Z,99.99
2016-09-27T07:35:58.956Z,99.99
2016-09-27T07:36:59.044Z,99.99
2016-09-27T07:37:59.028Z,99.99
2016-09-27T07:38:58.999Z,99.99
2016-09-27T07:39:58.963Z,99.99
2016-09-27T07:40:58.988Z,99.99
2016-09-27T07:41:59.071Z,99.99
2016-09-27T07:42:59.066Z,99.99
2016-09-27T07:43:59.011Z,99.63
2016-09-27T07:44:59.092Z,99.99
2016-09-27T07:45:59.097Z,98.76
2016-09-27T07:46:59.078Z,98.91
2016-09-27T07:47:59.061Z,98.05
2016-09-27T07:48:59.066Z,98.33
2016-09-27T07:49:59.068Z,98.33
2016-09-27T07:50:59.099Z,97.95
2016-09-27T07:51:59.319Z,98.24
2016-09-27T07:52:59.090Z,98.67
2016-09-27T07:53:59.856Z,98.96
2016-09-27T07:54:59.043Z,99.53
2016-09-27T07:55:59.068Z,98.67
2016-09-27T07:56:59.066Z,98.72
2016-09-27T07:57:59.071Z,97.85
2016-09-27T07:58:59.154Z,96.99
2016-09-27T07:59:59.162Z,97.85
2016-09-27T08:00:59.113Z,97.18
2016-09-27T08:01:59.458Z,96.08
2016-09-27T08:02:59.050Z,94.69
2016-09-27T08:03:59.141Z,92.63
2016-09-27T08:04:59.403Z,92.14
2016-09-27T08:05:59.092Z,92.72
2016-09-27T08:06:59.189Z,93.77
2016-09-27T08:07:59.131Z,94.12
2016-09-27T08:08:59.144Z,94.4
2016-09-27T08:09:59.061Z,93.82
2016-09-27T08:10:59.153Z,94.45
2016-09-27T08:11:59.141Z,93.87
2016-09-27T08:12:59.105Z,93.3
2016-09-27T08:13:59.163Z,92.91
2016-09-27T08:14:59.176Z,92.63
2016-09-27T08:15:59.099Z,92.24
2016-09-27T08:16:59.126Z,92.05
2016-09-27T08:17:59.288Z,91.71
2016-09-27T08:18:59.120Z,91.81
2016-09-27T08:19:59.135Z,92.14
2016-09-27T08:20:59.171Z,91.04
2016-09-27T08:21:59.186Z,90.6
2016-09-27T08:22:59.219Z,89.36
2016-09-27T08:23:59.188Z,89.64
2016-09-27T08:24:59.202Z,90.31
2016-09-27T08:25:59.250Z,90.12
2016-09-27T08:26:59.201Z,89.83
2016-09-27T08:27:59.197Z,89.64
2016-09-27T08:28:59.176Z,88.15
2016-09-27T08:29:59.225Z,87.57
2016-09-27T08:30:59.243Z,87.23
2016-09-27T08:31:59.203Z,84.83
2016-09-27T08:32:59.210Z,83.81
2016-09-27T08:33:59.306Z,82.7
2016-09-27T08:34:59.237Z,82.21
2016-09-27T08:35:59.206Z,81.83
2016-09-27T08:36:59.268Z,82.89
2016-09-27T08:37:59.267Z,82.65
2016-09-27T08:38:59.214Z,82.79
2016-09-27T08:39:59.249Z,84.1
2016-09-27T08:40:59.267Z,84.83
2016-09-27T08:41:59.231Z,86.36
2016-09-27T08:42:59.234Z,87.09
2016-09-27T08:43:59.207Z,86.52
2016-09-27T08:44:59.209Z,86.52
2016-09-27T08:45:59.218Z,87.19
2016-09-27T08:46:59.194Z,86.71
2016-09-27T08:47:59.244Z,86.04
2016-09-27T08:48:59.172Z,85.6
2016-09-27T08:49:59.420Z,84.92
2016-09-27T08:50:59.248Z,84.39
2016-09-27T08:51:59.210Z,83.18
2016-09-27T08:52:59.181Z,85.06
2016-09-27T08:53:59.195Z,86.56
2016-09-27T08:54:59.284Z,87.38
2016-09-27T08:55:59.276Z,86.8
2016-09-27T08:56:59.195Z,86.04
2016-09-27T08:57:59.277Z,85.4
2016-09-27T08:58:59.285Z,85.31
2016-09-27T08:59:59.314Z,85.06
2016-09-27T09:00:59.324Z,84.77
2016-09-27T09:01:59.271Z,84.05
2016-09-27T09:02:59.231Z,83.85
2016-09-27T09:03:59.282Z,83.47
2016-09-27T09:04:59.227Z,83.22
2016-09-27T09:05:59.772Z,83.8
2016-09-27T09:06:59.328Z,83.52
2016-09-27T09:07:59.229Z,83.75
2016-09-27T09:08:59.270Z,83.12
2016-09-27T09:09:59.308Z,82.83
2016-09-27T09:10:59.244Z,82.64
2016-09-27T09:11:59.323Z,83.12
2016-09-27T09:12:59.335Z,82.74
2016-09-27T09:13:59.325Z,81.77
2016-09-27T09:14:59.983Z,81.91
2016-09-27T09:15:59.331Z,81.09
2016-09-27T09:16:59.297Z,80.76
2016-09-27T09:17:59.295Z,80.22
2016-09-27T09:18:59.330Z,79.64
2016-09-27T09:19:59.280Z,80.31
2016-09-27T09:20:59.396Z,81.72
2016-09-27T09:22:01.675Z,80.18
2016-09-27T09:22:59.339Z,81.52
2016-09-27T09:23:59.307Z,82.06
2016-09-27T09:24:59.366Z,81.24
2016-09-27T09:25:59.454Z,79.93
2016-09-27T09:26:59.357Z,79.93
2016-09-27T09:27:59.366Z,79.93
2016-09-27T09:28:59.398Z,79.74
2016-09-27T09:29:59.340Z,80.31
2016-09-27T09:30:59.380Z,79.98
2016-09-27T09:31:59.372Z,80.08
2016-09-27T09:32:59.377Z,80.27
2016-09-27T09:33:59.307Z,79.16
2016-09-27T09:34:59.342Z,78.96
2016-09-27T09:35:59.381Z,79.29
2016-09-27T09:36:59.385Z,78.73
2016-09-27T09:37:59.617Z,78.29
2016-09-27T09:38:59.407Z,77.26
2016-09-27T09:39:59.368Z,79.24
2016-09-27T09:40:59.431Z,81.39
2016-09-27T09:41:59.403Z,81.77
2016-09-27T09:42:59.405Z,80.52
2016-09-27T09:43:59.354Z,78.09
2016-09-27T09:44:59.402Z,76.43
2016-09-27T09:45:59.401Z,75.6
2016-09-27T09:46:59.471Z,76.43
2016-09-27T09:47:59.461Z,76.24
2016-09-27T09:48:59.435Z,76.63
2016-09-27T09:49:59.514Z,75.85
2016-09-27T09:50:59.527Z,76.15
2016-09-27T09:51:59.436Z,77.01
2016-09-27T09:52:59.451Z,76.53
2016-09-27T09:53:59.863Z,77.21
2016-09-27T09:54:59.466Z,77.81
2016-09-27T09:55:59.436Z,77.46
2016-09-27T09:56:59.474Z,77.55
2016-09-27T09:57:59.503Z,76.92
2016-09-27T09:58:59.413Z,75.57
2016-09-27T09:59:59.441Z,74.06
2016-09-27T10:00:59.403Z,73.42
2016-09-27T10:01:59.468Z,73.07
2016-09-27T10:02:59.459Z,73.42
2016-09-27T10:03:59.484Z,74
2016-09-27T10:04:59.495Z,73.32
2016-09-27T10:05:59.506Z,73.9
2016-09-27T10:06:59.456Z,74.35
2016-09-27T10:07:59.516Z,73.96
2016-09-27T10:08:59.461Z,73.42
2016-09-27T10:09:59.947Z,72.64
2016-09-27T10:10:59.496Z,71.52
2016-09-27T10:11:59.503Z,72.24
2016-09-27T10:12:59.525Z,72.3
2016-09-27T10:13:59.507Z,72.26
2016-09-27T10:14:59.530Z,72.39
2016-09-27T10:15:59.560Z,72.64
2016-09-27T10:16:59.526Z,73.22
2016-09-27T10:17:59.451Z,74.25
2016-09-27T10:18:59.493Z,73.86
2016-09-27T10:19:59.470Z,73.96
2016-09-27T10:20:59.450Z,72.96
2016-09-27T10:21:59.573Z,72.36
2016-09-27T10:22:59.529Z,72.52
2016-09-27T10:23:59.454Z,73.77
2016-09-27T10:24:59.540Z,74.21
2016-09-27T10:25:59.667Z,72.9
2016-09-27T10:26:59.723Z,72.61
2016-09-27T10:27:59.579Z,74.06
2016-09-27T10:28:59.477Z,74.21
2016-09-27T10:29:59.483Z,72.38
2016-09-27T10:30:59.580Z,71.39
2016-09-27T10:31:59.483Z,70.65
2016-09-27T10:32:59.518Z,72.16
2016-09-27T10:33:59.531Z,72.16
2016-09-27T10:34:59.576Z,71.48
2016-09-27T10:35:59.606Z,71.1
2016-09-27T10:36:59.571Z,70.01
2016-09-27T10:37:59.594Z,68.75
2016-09-27T10:38:59.596Z,69.01
2016-09-27T10:39:59.597Z,70.17
2016-09-27T10:40:59.529Z,72.22
2016-09-27T10:41:59.738Z,72.03
2016-09-27T10:42:59.610Z,71.74
2016-09-27T10:43:59.564Z,71.36
2016-09-27T10:44:59.548Z,71.26
2016-09-27T10:45:59.552Z,69.78
2016-09-27T10:46:59.686Z,68.66
2016-09-27T10:47:59.573Z,67.72
2016-09-27T10:48:59.576Z,67.91
2016-09-27T10:49:59.626Z,69.33
2016-09-27T10:51:02.365Z,68.46
2016-09-27T10:52:04.744Z,67.53
2016-09-27T10:53:04.429Z,67.63
2016-09-27T10:54:01.685Z,70.01
2016-09-27T10:55:01.195Z,72.22
2016-09-27T10:55:59.630Z,72.58
2016-09-27T10:56:59.664Z,71.42
2016-09-27T10:57:59.917Z,70.39
2016-09-27T10:58:59.614Z,69.3
2016-09-27T10:59:59.582Z,67.3
2016-09-27T11:00:59.650Z,65.3
2016-09-27T11:01:59.604Z,64.53
2016-09-27T11:02:59.661Z,64.17
2016-09-27T11:03:59.624Z,64.66
2016-09-27T11:04:59.657Z,64.66
2016-09-27T11:05:59.648Z,64.66
2016-09-27T11:06:59.821Z,66.08
2016-09-27T11:07:59.673Z,65.98
2016-09-27T11:08:59.719Z,66.08
2016-09-27T11:09:59.636Z,67.17
2016-09-27T11:10:59.705Z,67.27
2016-09-27T11:11:59.676Z,66.91
2016-09-27T11:12:59.639Z,67.17
2016-09-27T11:14:00.045Z,68.4
2016-09-27T11:14:59.694Z,68.55
2016-09-27T11:15:59.635Z,67.33
2016-09-27T11:16:59.621Z,65.62
2016-09-27T11:17:59.669Z,64.07
2016-09-27T11:18:59.747Z,62.46
2016-09-27T11:19:59.632Z,60.3
2016-09-27T11:20:59.700Z,59.48
2016-09-27T11:21:59.672Z,59.12
2016-09-27T11:22:59.670Z,59.61
2016-09-27T11:24:00.361Z,59.31
2016-09-27T11:24:59.710Z,59.51
2016-09-27T11:25:59.726Z,59.12
2016-09-27T11:26:59.699Z,58.34
2016-09-27T11:27:59.707Z,58.44
2016-09-27T11:28:59.764Z,59.16
2016-09-27T11:30:00.040Z,58.55
2016-09-27T11:30:59.771Z,60.33
2016-09-27T11:31:59.738Z,60.11
2016-09-27T11:32:59.708Z,58.39
2016-09-27T11:33:59.706Z,58.42
2016-09-27T11:34:59.677Z,57.68
2016-09-27T11:35:59.752Z,55.41
2016-09-27T11:36:59.667Z,55.07
2016-09-27T11:37:59.677Z,56.18
2016-09-27T11:38:59.775Z,58.65
2016-09-27T11:39:59.689Z,59.69
2016-09-27T11:40:59.793Z,60.72
2016-09-27T11:41:59.734Z,61.44
2016-09-27T11:42:59.869Z,63.28
2016-09-27T11:43:59.733Z,62.15
2016-09-27T11:44:59.793Z,62.25
2016-09-27T11:45:59.855Z,61.57
2016-09-27T11:46:59.795Z,61.41
2016-09-27T11:47:59.819Z,60.8
2016-09-27T11:48:59.790Z,60.06
2016-09-27T11:50:00.260Z,59.15
2016-09-27T11:51:04.500Z,58.63
2016-09-27T11:52:01.408Z,56.36
2016-09-27T11:52:59.814Z,55.22
2016-09-27T11:53:59.732Z,56.2
2016-09-27T11:54:59.831Z,57.23
2016-09-27T11:55:59.832Z,59.36
2016-09-27T11:57:00.388Z,61.11
2016-09-27T11:57:59.764Z,61.86
2016-09-27T11:58:59.793Z,61.47
2016-09-27T11:59:59.822Z,61.57
2016-09-27T12:00:59.846Z,61.47
2016-09-27T12:01:59.904Z,61.08
2016-09-27T12:02:59.746Z,61.6
2016-09-27T12:03:59.876Z,62.12
2016-09-27T12:04:59.756Z,61.09
2016-09-27T12:05:59.800Z,61.09
2016-09-27T12:06:59.866Z,60.71
2016-09-27T12:07:59.812Z,60.18
2016-09-27T12:08:59.849Z,59.38
2016-09-27T12:09:59.846Z,58.01
2016-09-27T12:10:59.862Z,57.17
2016-09-27T12:11:59.851Z,57.84
2016-09-27T12:12:59.780Z,59.07
2016-09-27T12:13:59.884Z,59.72
2016-09-27T12:14:59.842Z,59.82
2016-09-27T12:15:59.873Z,58.95
2016-09-27T12:16:59.894Z,58.75
2016-09-27T12:17:59.868Z,58.75
2016-09-27T12:19:00.428Z,58.92
2016-09-27T12:19:59.851Z,59.11
2016-09-27T12:20:59.853Z,59.21
2016-09-27T12:21:59.844Z,60.41
2016-09-27T12:23:00.082Z,62.4
2016-09-27T12:23:59.946Z,63.15
2016-09-27T12:24:59.828Z,62.98
2016-09-27T12:25:59.822Z,61.7
2016-09-27T12:26:59.856Z,60.21
2016-09-27T12:27:59.897Z,61.18
2016-09-27T12:28:59.818Z,60.99
2016-09-27T12:29:59.901Z,59.95
2016-09-27T12:31:00.009Z,59.4
2016-09-27T12:31:59.913Z,60.17
2016-09-27T12:32:59.918Z,60.92
2016-09-27T12:33:59.889Z,61.5
2016-09-27T12:34:59.966Z,59.08
2016-09-27T12:35:59.851Z,58.65
2016-09-27T12:36:59.937Z,58.89
2016-09-27T12:37:59.843Z,58.8
2016-09-27T12:38:59.939Z,58.89
2016-09-27T12:39:59.929Z,57.37
2016-09-27T12:40:59.919Z,57.2
2016-09-27T12:41:59.969Z,57.69
2016-09-27T12:42:59.905Z,58.14
2016-09-27T12:44:00.025Z,56.79
2016-09-27T12:44:59.884Z,56.24
2016-09-27T12:45:59.968Z,56.1
2016-09-27T12:47:00.771Z,54.77
2016-09-27T12:47:59.915Z,55.26
2016-09-27T12:48:59.969Z,55.81
2016-09-27T12:49:59.893Z,58.01
2016-09-27T12:50:59.998Z,59.66
2016-09-27T12:51:59.965Z,60.41
2016-09-27T12:53:00.008Z,60.57
2016-09-27T12:53:59.944Z,60.57